sensor_id;sensor_type;location;lat;lon;timestamp;P1;durP1;ratioP1;P2;durP2;ratioP2
9481;SDS011;4779;48.062;11.672;2023-03-31T00:01:26;7.70;;;4.83;;
9481;SDS011;4779;48.062;11.672;2023-03-31T00:03:53;5.10;;;4.60;;
9481;SDS011;4779;48.062;11.672;2023-03-31T00:06:27;5.23;;;4.30;;
9481;SDS011;4779;48.062;11.672;2023-03-31T00:08:55;5.33;;;4.60;;
9481;SDS011;4779;48.062;11.672;2023-03-31T00:11:26;8.07;;;4.13;;
9481;SDS011;4779;48.062;11.672;2023-03-31T00:13:53;5.80;;;4.30;;
9481;SDS011;4779;48.062;11.672;2023-03-31T00:16:20;6.03;;;4.30;;
9481;SDS011;4779;48.062;11.672;2023-03-31T00:18:49;5.03;;;4.20;;
9481;SDS011;4779;48.062;11.672;2023-03-31T00:21:16;7.73;;;5.00;;
9481;SDS011;4779;48.062;11.672;2023-03-31T00:23:54;4.87;;;3.97;;
9481;SDS011;4779;48.062;11.672;2023-03-31T00:26:22;4.63;;;4.13;;
9481;SDS011;4779;48.062;11.672;2023-03-31T00:28:50;7.67;;;4.40;;
9481;SDS011;4779;48.062;11.672;2023-03-31T00:31:18;6.80;;;4.70;;
9481;SDS011;4779;48.062;11.672;2023-03-31T00:33:46;7.73;;;5.70;;
9481;SDS011;4779;48.062;11.672;2023-03-31T00:36:14;6.23;;;4.57;;
9481;SDS011;4779;48.062;11.672;2023-03-31T00:38:45;5.27;;;4.50;;
9481;SDS011;4779;48.062;11.672;2023-03-31T00:41:12;5.37;;;4.37;;
9481;SDS011;4779;48.062;11.672;2023-03-31T00:43:39;6.53;;;4.83;;
9481;SDS011;4779;48.062;11.672;2023-03-31T00:46:10;5.07;;;4.50;;
9481;SDS011;4779;48.062;11.672;2023-03-31T00:48:42;7.37;;;5.00;;
9481;SDS011;4779;48.062;11.672;2023-03-31T00:51:15;5.83;;;4.70;;
9481;SDS011;4779;48.062;11.672;2023-03-31T00:53:43;6.93;;;4.87;;
9481;SDS011;4779;48.062;11.672;2023-03-31T00:56:15;7.57;;;4.97;;
9481;SDS011;4779;48.062;11.672;2023-03-31T00:58:43;6.37;;;4.93;;
9481;SDS011;4779;48.062;11.672;2023-03-31T01:01:12;5.60;;;4.80;;
9481;SDS011;4779;48.062;11.672;2023-03-31T01:03:41;7.83;;;5.17;;
9481;SDS011;4779;48.062;11.672;2023-03-31T01:06:09;5.33;;;4.80;;
9481;SDS011;4779;48.062;11.672;2023-03-31T01:08:39;6.63;;;4.80;;
9481;SDS011;4779;48.062;11.672;2023-03-31T01:11:09;6.43;;;5.23;;
9481;SDS011;4779;48.062;11.672;2023-03-31T01:13:38;5.70;;;4.73;;
9481;SDS011;4779;48.062;11.672;2023-03-31T01:16:06;7.23;;;5.30;;
9481;SDS011;4779;48.062;11.672;2023-03-31T01:18:34;5.20;;;4.70;;
9481;SDS011;4779;48.062;11.672;2023-03-31T01:21:17;6.80;;;5.03;;
9481;SDS011;4779;48.062;11.672;2023-03-31T01:24:12;5.83;;;5.20;;
9481;SDS011;4779;48.062;11.672;2023-03-31T01:27:06;6.30;;;5.07;;
9481;SDS011;4779;48.062;11.672;2023-03-31T01:29:58;6.40;;;5.17;;
9481;SDS011;4779;48.062;11.672;2023-03-31T02:04:02;7.63;;;5.00;;
9481;SDS011;4779;48.062;11.672;2023-03-31T02:06:34;5.97;;;5.37;;
9481;SDS011;4779;48.062;11.672;2023-03-31T02:09:05;7.87;;;5.40;;
9481;SDS011;4779;48.062;11.672;2023-03-31T02:11:37;6.70;;;5.00;;
9481;SDS011;4779;48.062;11.672;2023-03-31T02:14:07;7.47;;;4.97;;
9481;SDS011;4779;48.062;11.672;2023-03-31T02:16:37;7.40;;;5.73;;
9481;SDS011;4779;48.062;11.672;2023-03-31T02:19:12;8.20;;;5.40;;
9481;SDS011;4779;48.062;11.672;2023-03-31T02:21:43;8.80;;;5.17;;
9481;SDS011;4779;48.062;11.672;2023-03-31T02:24:13;6.37;;;5.20;;
9481;SDS011;4779;48.062;11.672;2023-03-31T02:26:44;5.60;;;4.80;;
9481;SDS011;4779;48.062;11.672;2023-03-31T02:29:17;9.37;;;5.53;;
9481;SDS011;4779;48.062;11.672;2023-03-31T02:31:45;7.13;;;5.40;;
9481;SDS011;4779;48.062;11.672;2023-03-31T02:34:19;6.00;;;5.40;;
9481;SDS011;4779;48.062;11.672;2023-03-31T02:36:46;6.27;;;5.50;;
9481;SDS011;4779;48.062;11.672;2023-03-31T02:39:14;8.83;;;5.70;;
9481;SDS011;4779;48.062;11.672;2023-03-31T02:41:44;8.60;;;5.53;;
9481;SDS011;4779;48.062;11.672;2023-03-31T02:44:11;7.17;;;5.53;;
9481;SDS011;4779;48.062;11.672;2023-03-31T02:46:38;9.20;;;5.80;;
9481;SDS011;4779;48.062;11.672;2023-03-31T02:49:06;7.20;;;5.67;;
9481;SDS011;4779;48.062;11.672;2023-03-31T02:54:45;6.83;;;5.40;;
9481;SDS011;4779;48.062;11.672;2023-03-31T02:57:38;7.37;;;5.57;;
9481;SDS011;4779;48.062;11.672;2023-03-31T03:00:27;7.70;;;5.43;;
9481;SDS011;4779;48.062;11.672;2023-03-31T03:03:07;5.83;;;5.20;;
9481;SDS011;4779;48.062;11.672;2023-03-31T03:05:48;6.83;;;5.07;;
9481;SDS011;4779;48.062;11.672;2023-03-31T03:08:25;6.17;;;4.87;;
9481;SDS011;4779;48.062;11.672;2023-03-31T03:11:03;7.03;;;5.13;;
9481;SDS011;4779;48.062;11.672;2023-03-31T03:13:35;7.80;;;5.10;;
9481;SDS011;4779;48.062;11.672;2023-03-31T03:16:12;8.87;;;5.20;;
9481;SDS011;4779;48.062;11.672;2023-03-31T03:18:43;5.80;;;4.93;;
9481;SDS011;4779;48.062;11.672;2023-03-31T03:21:10;10.07;;;5.60;;
9481;SDS011;4779;48.062;11.672;2023-03-31T03:23:37;9.07;;;5.60;;
9481;SDS011;4779;48.062;11.672;2023-03-31T03:26:05;7.77;;;4.90;;
9481;SDS011;4779;48.062;11.672;2023-03-31T03:28:33;8.10;;;5.47;;
9481;SDS011;4779;48.062;11.672;2023-03-31T03:31:00;7.10;;;5.53;;
9481;SDS011;4779;48.062;11.672;2023-03-31T03:33:27;7.17;;;5.33;;
9481;SDS011;4779;48.062;11.672;2023-03-31T03:35:54;8.13;;;5.57;;
9481;SDS011;4779;48.062;11.672;2023-03-31T03:38:21;6.03;;;4.80;;
9481;SDS011;4779;48.062;11.672;2023-03-31T03:40:51;7.73;;;5.10;;
9481;SDS011;4779;48.062;11.672;2023-03-31T03:43:20;7.67;;;5.73;;
9481;SDS011;4779;48.062;11.672;2023-03-31T03:45:47;10.83;;;5.57;;
9481;SDS011;4779;48.062;11.672;2023-03-31T03:48:14;6.03;;;5.43;;
9481;SDS011;4779;48.062;11.672;2023-03-31T03:50:41;7.67;;;5.30;;
9481;SDS011;4779;48.062;11.672;2023-03-31T03:53:07;6.57;;;5.97;;
9481;SDS011;4779;48.062;11.672;2023-03-31T03:55:35;7.27;;;5.97;;
9481;SDS011;4779;48.062;11.672;2023-03-31T03:58:01;8.17;;;5.70;;
9481;SDS011;4779;48.062;11.672;2023-03-31T04:00:30;8.67;;;6.30;;
9481;SDS011;4779;48.062;11.672;2023-03-31T04:02:57;8.67;;;6.00;;
9481;SDS011;4779;48.062;11.672;2023-03-31T04:05:24;9.60;;;6.07;;
9481;SDS011;4779;48.062;11.672;2023-03-31T04:07:51;7.57;;;6.40;;
9481;SDS011;4779;48.062;11.672;2023-03-31T04:10:18;8.33;;;6.93;;
9481;SDS011;4779;48.062;11.672;2023-03-31T04:12:45;9.00;;;6.60;;
9481;SDS011;4779;48.062;11.672;2023-03-31T04:15:12;8.30;;;6.37;;
9481;SDS011;4779;48.062;11.672;2023-03-31T04:17:40;10.13;;;7.83;;
9481;SDS011;4779;48.062;11.672;2023-03-31T04:20:12;8.20;;;7.00;;
9481;SDS011;4779;48.062;11.672;2023-03-31T04:22:39;10.00;;;7.77;;
9481;SDS011;4779;48.062;11.672;2023-03-31T04:25:07;8.60;;;7.70;;
9481;SDS011;4779;48.062;11.672;2023-03-31T04:27:40;8.50;;;7.10;;
9481;SDS011;4779;48.062;11.672;2023-03-31T04:30:11;12.03;;;10.17;;
9481;SDS011;4779;48.062;11.672;2023-03-31T04:32:48;12.20;;;11.00;;
9481;SDS011;4779;48.062;11.672;2023-03-31T04:35:17;15.87;;;14.03;;
9481;SDS011;4779;48.062;11.672;2023-03-31T04:37:45;14.10;;;12.60;;
9481;SDS011;4779;48.062;11.672;2023-03-31T04:40:12;13.10;;;11.67;;
9481;SDS011;4779;48.062;11.672;2023-03-31T04:42:40;15.00;;;12.23;;
9481;SDS011;4779;48.062;11.672;2023-03-31T04:45:07;12.83;;;11.67;;
9481;SDS011;4779;48.062;11.672;2023-03-31T04:47:35;12.30;;;11.10;;
9481;SDS011;4779;48.062;11.672;2023-03-31T04:50:04;13.50;;;12.23;;
9481;SDS011;4779;48.062;11.672;2023-03-31T04:52:31;9.70;;;8.70;;
9481;SDS011;4779;48.062;11.672;2023-03-31T04:54:58;8.77;;;7.63;;
9481;SDS011;4779;48.062;11.672;2023-03-31T04:57:25;10.10;;;8.97;;
9481;SDS011;4779;48.062;11.672;2023-03-31T04:59:52;9.33;;;8.43;;
9481;SDS011;4779;48.062;11.672;2023-03-31T05:02:19;9.50;;;8.47;;
9481;SDS011;4779;48.062;11.672;2023-03-31T05:04:47;9.77;;;8.10;;
9481;SDS011;4779;48.062;11.672;2023-03-31T05:07:17;10.17;;;8.77;;
9481;SDS011;4779;48.062;11.672;2023-03-31T05:09:44;8.73;;;7.13;;
9481;SDS011;4779;48.062;11.672;2023-03-31T05:12:11;8.03;;;7.00;;
9481;SDS011;4779;48.062;11.672;2023-03-31T05:14:38;11.67;;;7.20;;
9481;SDS011;4779;48.062;11.672;2023-03-31T05:17:05;9.07;;;7.40;;
9481;SDS011;4779;48.062;11.672;2023-03-31T05:19:32;10.20;;;7.73;;
9481;SDS011;4779;48.062;11.672;2023-03-31T05:21:59;9.73;;;7.47;;
9481;SDS011;4779;48.062;11.672;2023-03-31T05:24:27;10.97;;;7.60;;
9481;SDS011;4779;48.062;11.672;2023-03-31T05:26:55;15.13;;;8.37;;
9481;SDS011;4779;48.062;11.672;2023-03-31T05:29:22;13.50;;;7.73;;
9481;SDS011;4779;48.062;11.672;2023-03-31T05:31:50;14.47;;;8.70;;
9481;SDS011;4779;48.062;11.672;2023-03-31T05:34:18;13.97;;;8.93;;
9481;SDS011;4779;48.062;11.672;2023-03-31T05:36:45;14.43;;;9.07;;
9481;SDS011;4779;48.062;11.672;2023-03-31T05:39:14;11.37;;;8.27;;
9481;SDS011;4779;48.062;11.672;2023-03-31T05:41:44;12.10;;;8.57;;
9481;SDS011;4779;48.062;11.672;2023-03-31T05:44:11;11.30;;;8.57;;
9481;SDS011;4779;48.062;11.672;2023-03-31T05:46:38;12.93;;;9.93;;
9481;SDS011;4779;48.062;11.672;2023-03-31T05:49:05;9.47;;;8.53;;
9481;SDS011;4779;48.062;11.672;2023-03-31T05:51:32;14.20;;;9.33;;
9481;SDS011;4779;48.062;11.672;2023-03-31T05:53:59;11.47;;;8.87;;
9481;SDS011;4779;48.062;11.672;2023-03-31T05:56:26;16.37;;;9.50;;
9481;SDS011;4779;48.062;11.672;2023-03-31T05:58:54;14.13;;;9.43;;
9481;SDS011;4779;48.062;11.672;2023-03-31T06:01:21;13.40;;;9.00;;
9481;SDS011;4779;48.062;11.672;2023-03-31T06:03:49;13.10;;;9.27;;
9481;SDS011;4779;48.062;11.672;2023-03-31T06:06:15;12.60;;;9.47;;
9481;SDS011;4779;48.062;11.672;2023-03-31T06:08:43;10.73;;;8.27;;
9481;SDS011;4779;48.062;11.672;2023-03-31T06:11:12;9.83;;;8.60;;
9481;SDS011;4779;48.062;11.672;2023-03-31T06:13:41;12.17;;;8.60;;
9481;SDS011;4779;48.062;11.672;2023-03-31T06:16:10;11.43;;;7.43;;
9481;SDS011;4779;48.062;11.672;2023-03-31T06:18:37;8.50;;;7.30;;
9481;SDS011;4779;48.062;11.672;2023-03-31T06:21:05;8.67;;;7.10;;
9481;SDS011;4779;48.062;11.672;2023-03-31T06:23:33;7.80;;;6.70;;
9481;SDS011;4779;48.062;11.672;2023-03-31T06:26:00;7.80;;;6.90;;
9481;SDS011;4779;48.062;11.672;2023-03-31T06:28:28;9.30;;;7.20;;
9481;SDS011;4779;48.062;11.672;2023-03-31T06:31:00;8.07;;;6.17;;
9481;SDS011;4779;48.062;11.672;2023-03-31T06:33:28;8.60;;;6.63;;
9481;SDS011;4779;48.062;11.672;2023-03-31T06:35:56;9.53;;;6.77;;
9481;SDS011;4779;48.062;11.672;2023-03-31T06:38:23;9.10;;;6.73;;
9481;SDS011;4779;48.062;11.672;2023-03-31T06:40:50;8.00;;;7.07;;
9481;SDS011;4779;48.062;11.672;2023-03-31T06:43:17;9.63;;;7.13;;
9481;SDS011;4779;48.062;11.672;2023-03-31T06:45:44;8.67;;;6.97;;
9481;SDS011;4779;48.062;11.672;2023-03-31T06:48:11;10.13;;;7.13;;
9481;SDS011;4779;48.062;11.672;2023-03-31T06:50:40;10.37;;;7.53;;
9481;SDS011;4779;48.062;11.672;2023-03-31T06:53:07;9.43;;;7.23;;
9481;SDS011;4779;48.062;11.672;2023-03-31T06:55:34;7.90;;;6.83;;
9481;SDS011;4779;48.062;11.672;2023-03-31T06:58:01;7.87;;;6.83;;
9481;SDS011;4779;48.062;11.672;2023-03-31T07:00:28;8.10;;;6.60;;
9481;SDS011;4779;48.062;11.672;2023-03-31T07:02:56;9.27;;;7.33;;
9481;SDS011;4779;48.062;11.672;2023-03-31T07:05:22;7.20;;;6.30;;
9481;SDS011;4779;48.062;11.672;2023-03-31T07:07:52;8.27;;;7.17;;
9481;SDS011;4779;48.062;11.672;2023-03-31T07:10:20;8.20;;;6.47;;
9481;SDS011;4779;48.062;11.672;2023-03-31T07:12:47;7.80;;;6.53;;
9481;SDS011;4779;48.062;11.672;2023-03-31T07:15:14;9.90;;;6.87;;
9481;SDS011;4779;48.062;11.672;2023-03-31T07:17:41;9.17;;;7.03;;
9481;SDS011;4779;48.062;11.672;2023-03-31T07:20:09;9.07;;;7.20;;
9481;SDS011;4779;48.062;11.672;2023-03-31T07:22:39;9.83;;;6.87;;
9481;SDS011;4779;48.062;11.672;2023-03-31T07:25:08;7.40;;;6.53;;
9481;SDS011;4779;48.062;11.672;2023-03-31T07:27:36;7.90;;;7.10;;
9481;SDS011;4779;48.062;11.672;2023-03-31T07:30:04;9.17;;;7.47;;
9481;SDS011;4779;48.062;11.672;2023-03-31T07:32:32;7.10;;;6.40;;
9481;SDS011;4779;48.062;11.672;2023-03-31T07:34:59;8.82;;;7.35;;
9481;SDS011;4779;48.062;11.672;2023-03-31T07:37:26;11.07;;;8.03;;
9481;SDS011;4779;48.062;11.672;2023-03-31T07:39:53;10.83;;;8.00;;
9481;SDS011;4779;48.062;11.672;2023-03-31T07:42:21;12.00;;;7.63;;
9481;SDS011;4779;48.062;11.672;2023-03-31T07:44:48;12.37;;;7.70;;
9481;SDS011;4779;48.062;11.672;2023-03-31T07:47:15;8.53;;;6.67;;
9481;SDS011;4779;48.062;11.672;2023-03-31T07:49:42;11.13;;;7.50;;
9481;SDS011;4779;48.062;11.672;2023-03-31T07:52:09;9.93;;;7.50;;
9481;SDS011;4779;48.062;11.672;2023-03-31T07:54:36;10.93;;;7.60;;
9481;SDS011;4779;48.062;11.672;2023-03-31T07:57:03;10.17;;;7.70;;
9481;SDS011;4779;48.062;11.672;2023-03-31T07:59:31;11.80;;;9.00;;
9481;SDS011;4779;48.062;11.672;2023-03-31T08:01:58;15.03;;;9.57;;
9481;SDS011;4779;48.062;11.672;2023-03-31T08:04:25;20.93;;;18.53;;
9481;SDS011;4779;48.062;11.672;2023-03-31T08:06:52;21.27;;;18.07;;
9481;SDS011;4779;48.062;11.672;2023-03-31T08:09:19;20.00;;;17.67;;
9481;SDS011;4779;48.062;11.672;2023-03-31T08:11:47;15.53;;;12.60;;
9481;SDS011;4779;48.062;11.672;2023-03-31T08:14:14;13.83;;;10.03;;
9481;SDS011;4779;48.062;11.672;2023-03-31T08:16:43;16.67;;;11.63;;
9481;SDS011;4779;48.062;11.672;2023-03-31T08:19:10;14.57;;;11.17;;
9481;SDS011;4779;48.062;11.672;2023-03-31T08:21:36;11.60;;;8.63;;
9481;SDS011;4779;48.062;11.672;2023-03-31T08:24:03;12.07;;;8.93;;
9481;SDS011;4779;48.062;11.672;2023-03-31T08:26:31;9.10;;;8.13;;
9481;SDS011;4779;48.062;11.672;2023-03-31T08:29:01;10.57;;;7.50;;
9481;SDS011;4779;48.062;11.672;2023-03-31T08:31:29;10.23;;;7.50;;
9481;SDS011;4779;48.062;11.672;2023-03-31T08:33:57;10.07;;;7.47;;
9481;SDS011;4779;48.062;11.672;2023-03-31T08:36:25;8.97;;;8.07;;
9481;SDS011;4779;48.062;11.672;2023-03-31T08:38:52;9.20;;;7.50;;
9481;SDS011;4779;48.062;11.672;2023-03-31T08:41:26;10.77;;;7.23;;
9481;SDS011;4779;48.062;11.672;2023-03-31T08:44:02;9.37;;;6.90;;
9481;SDS011;4779;48.062;11.672;2023-03-31T08:46:34;9.37;;;6.60;;
9481;SDS011;4779;48.062;11.672;2023-03-31T08:49:02;8.03;;;6.70;;
9481;SDS011;4779;48.062;11.672;2023-03-31T08:51:31;12.50;;;7.50;;
9481;SDS011;4779;48.062;11.672;2023-03-31T08:54:01;9.87;;;7.53;;
9481;SDS011;4779;48.062;11.672;2023-03-31T08:56:30;11.40;;;7.90;;
9481;SDS011;4779;48.062;11.672;2023-03-31T08:59:03;10.27;;;7.70;;
9481;SDS011;4779;48.062;11.672;2023-03-31T09:01:33;8.53;;;7.30;;
9481;SDS011;4779;48.062;11.672;2023-03-31T09:04:14;10.30;;;7.73;;
9481;SDS011;4779;48.062;11.672;2023-03-31T09:06:52;9.03;;;7.17;;
9481;SDS011;4779;48.062;11.672;2023-03-31T09:09:28;7.67;;;5.60;;
9481;SDS011;4779;48.062;11.672;2023-03-31T09:12:04;8.83;;;6.43;;
9481;SDS011;4779;48.062;11.672;2023-03-31T09:14:37;7.27;;;6.50;;
9481;SDS011;4779;48.062;11.672;2023-03-31T09:17:10;8.47;;;5.87;;
9481;SDS011;4779;48.062;11.672;2023-03-31T09:19:44;6.97;;;5.50;;
9481;SDS011;4779;48.062;11.672;2023-03-31T09:22:16;5.83;;;5.23;;
9481;SDS011;4779;48.062;11.672;2023-03-31T09:24:49;7.73;;;5.17;;
9481;SDS011;4779;48.062;11.672;2023-03-31T09:27:21;5.50;;;5.00;;
9481;SDS011;4779;48.062;11.672;2023-03-31T09:29:53;6.97;;;5.20;;
9481;SDS011;4779;48.062;11.672;2023-03-31T09:32:23;7.10;;;4.80;;
9481;SDS011;4779;48.062;11.672;2023-03-31T09:34:55;4.97;;;4.40;;
9481;SDS011;4779;48.062;11.672;2023-03-31T09:37:27;7.40;;;4.83;;
9481;SDS011;4779;48.062;11.672;2023-03-31T09:39:57;5.23;;;4.30;;
9481;SDS011;4779;48.062;11.672;2023-03-31T09:42:26;4.60;;;4.10;;
9481;SDS011;4779;48.062;11.672;2023-03-31T09:44:53;5.07;;;3.90;;
9481;SDS011;4779;48.062;11.672;2023-03-31T09:47:30;5.27;;;3.90;;
9481;SDS011;4779;48.062;11.672;2023-03-31T09:50:04;5.27;;;3.90;;
9481;SDS011;4779;48.062;11.672;2023-03-31T09:52:33;4.17;;;3.77;;
9481;SDS011;4779;48.062;11.672;2023-03-31T09:55:03;4.67;;;4.23;;
9481;SDS011;4779;48.062;11.672;2023-03-31T09:57:40;5.97;;;4.50;;
9481;SDS011;4779;48.062;11.672;2023-03-31T10:00:13;6.57;;;4.27;;
9481;SDS011;4779;48.062;11.672;2023-03-31T10:02:42;5.30;;;4.57;;
9481;SDS011;4779;48.062;11.672;2023-03-31T10:05:27;7.90;;;4.17;;
9481;SDS011;4779;48.062;11.672;2023-03-31T10:08:13;5.93;;;4.27;;
9481;SDS011;4779;48.062;11.672;2023-03-31T10:10:49;4.47;;;4.07;;
9481;SDS011;4779;48.062;11.672;2023-03-31T10:13:19;4.87;;;3.80;;
9481;SDS011;4779;48.062;11.672;2023-03-31T10:15:50;5.87;;;3.40;;
9481;SDS011;4779;48.062;11.672;2023-03-31T10:18:18;5.27;;;3.50;;
9481;SDS011;4779;48.062;11.672;2023-03-31T10:20:49;4.07;;;3.53;;
9481;SDS011;4779;48.062;11.672;2023-03-31T10:23:23;4.73;;;3.63;;
9481;SDS011;4779;48.062;11.672;2023-03-31T10:25:52;5.70;;;3.27;;
9481;SDS011;4779;48.062;11.672;2023-03-31T10:28:20;4.47;;;3.20;;
9481;SDS011;4779;48.062;11.672;2023-03-31T10:30:48;4.90;;;3.30;;
9481;SDS011;4779;48.062;11.672;2023-03-31T10:33:18;4.40;;;3.93;;
9481;SDS011;4779;48.062;11.672;2023-03-31T10:35:53;4.47;;;3.80;;
9481;SDS011;4779;48.062;11.672;2023-03-31T10:38:23;4.27;;;3.87;;
9481;SDS011;4779;48.062;11.672;2023-03-31T10:40:53;4.80;;;3.63;;
9481;SDS011;4779;48.062;11.672;2023-03-31T10:43:24;5.33;;;3.20;;
9481;SDS011;4779;48.062;11.672;2023-03-31T10:45:52;5.40;;;3.30;;
9481;SDS011;4779;48.062;11.672;2023-03-31T10:48:22;3.60;;;3.00;;
9481;SDS011;4779;48.062;11.672;2023-03-31T10:50:53;5.90;;;3.60;;
9481;SDS011;4779;48.062;11.672;2023-03-31T10:53:23;3.87;;;3.33;;
9481;SDS011;4779;48.062;11.672;2023-03-31T10:55:57;4.07;;;3.43;;
9481;SDS011;4779;48.062;11.672;2023-03-31T10:58:38;5.37;;;3.33;;
9481;SDS011;4779;48.062;11.672;2023-03-31T11:01:39;4.23;;;3.50;;
9481;SDS011;4779;48.062;11.672;2023-03-31T11:04:18;6.23;;;3.70;;
9481;SDS011;4779;48.062;11.672;2023-03-31T11:07:05;4.13;;;3.60;;
9481;SDS011;4779;48.062;11.672;2023-03-31T11:09:41;4.70;;;3.63;;
9481;SDS011;4779;48.062;11.672;2023-03-31T11:12:19;4.93;;;3.33;;
9481;SDS011;4779;48.062;11.672;2023-03-31T11:14:59;5.87;;;3.67;;
9481;SDS011;4779;48.062;11.672;2023-03-31T11:17:40;5.33;;;3.77;;
9481;SDS011;4779;48.062;11.672;2023-03-31T11:20:18;6.83;;;3.90;;
9481;SDS011;4779;48.062;11.672;2023-03-31T11:22:54;5.60;;;4.37;;
9481;SDS011;4779;48.062;11.672;2023-03-31T11:25:31;5.53;;;4.30;;
9481;SDS011;4779;48.062;11.672;2023-03-31T11:30:54;6.70;;;3.40;;
9481;SDS011;4779;48.062;11.672;2023-03-31T11:33:36;5.10;;;3.00;;
9481;SDS011;4779;48.062;11.672;2023-03-31T11:36:26;4.80;;;2.70;;
9481;SDS011;4779;48.062;11.672;2023-03-31T11:39:16;6.20;;;2.33;;
9481;SDS011;4779;48.062;11.672;2023-03-31T11:41:58;2.73;;;1.90;;
9481;SDS011;4779;48.062;11.672;2023-03-31T11:44:29;2.70;;;2.10;;
9481;SDS011;4779;48.062;11.672;2023-03-31T11:47:04;3.87;;;1.70;;
9481;SDS011;4779;48.062;11.672;2023-03-31T11:49:36;2.10;;;1.57;;
9481;SDS011;4779;48.062;11.672;2023-03-31T11:52:07;3.17;;;1.33;;
9481;SDS011;4779;48.062;11.672;2023-03-31T11:54:41;3.17;;;1.50;;
9481;SDS011;4779;48.062;11.672;2023-03-31T11:57:12;3.30;;;1.90;;
9481;SDS011;4779;48.062;11.672;2023-03-31T11:59:44;1.40;;;1.30;;
9481;SDS011;4779;48.062;11.672;2023-03-31T12:02:20;2.00;;;1.60;;
9481;SDS011;4779;48.062;11.672;2023-03-31T12:04:49;2.23;;;1.40;;
9481;SDS011;4779;48.062;11.672;2023-03-31T12:07:21;1.60;;;1.50;;
9481;SDS011;4779;48.062;11.672;2023-03-31T12:09:58;3.23;;;1.93;;
9481;SDS011;4779;48.062;11.672;2023-03-31T12:12:31;3.60;;;1.80;;
9481;SDS011;4779;48.062;11.672;2023-03-31T12:15:02;6.27;;;1.87;;
9481;SDS011;4779;48.062;11.672;2023-03-31T12:17:38;4.00;;;1.60;;
9481;SDS011;4779;48.062;11.672;2023-03-31T12:20:11;3.10;;;1.80;;
9481;SDS011;4779;48.062;11.672;2023-03-31T12:22:43;3.10;;;1.60;;
9481;SDS011;4779;48.062;11.672;2023-03-31T12:25:14;2.37;;;1.70;;
9481;SDS011;4779;48.062;11.672;2023-03-31T12:27:46;2.67;;;1.90;;
9481;SDS011;4779;48.062;11.672;2023-03-31T12:30:26;2.07;;;1.80;;
9481;SDS011;4779;48.062;11.672;2023-03-31T12:32:59;2.90;;;2.60;;
9481;SDS011;4779;48.062;11.672;2023-03-31T12:35:31;3.90;;;2.77;;
9481;SDS011;4779;48.062;11.672;2023-03-31T12:38:16;2.90;;;2.33;;
9481;SDS011;4779;48.062;11.672;2023-03-31T12:41:00;3.83;;;2.80;;
9481;SDS011;4779;48.062;11.672;2023-03-31T12:46:30;4.37;;;2.57;;
9481;SDS011;4779;48.062;11.672;2023-03-31T12:49:11;3.40;;;2.50;;
9481;SDS011;4779;48.062;11.672;2023-03-31T12:51:51;3.23;;;2.50;;
9481;SDS011;4779;48.062;11.672;2023-03-31T12:54:34;3.70;;;2.90;;
9481;SDS011;4779;48.062;11.672;2023-03-31T12:57:28;3.53;;;3.00;;
9481;SDS011;4779;48.062;11.672;2023-03-31T13:02:47;4.10;;;3.00;;
9481;SDS011;4779;48.062;11.672;2023-03-31T13:11:12;2.33;;;1.80;;
9481;SDS011;4779;48.062;11.672;2023-03-31T13:13:41;3.27;;;2.10;;
9481;SDS011;4779;48.062;11.672;2023-03-31T13:16:17;2.57;;;1.47;;
9481;SDS011;4779;48.062;11.672;2023-03-31T13:18:49;3.17;;;1.37;;
9481;SDS011;4779;48.062;11.672;2023-03-31T13:21:17;1.73;;;1.27;;
9481;SDS011;4779;48.062;11.672;2023-03-31T13:23:45;2.33;;;1.00;;
9481;SDS011;4779;48.062;11.672;2023-03-31T13:29:21;2.10;;;1.10;;
9481;SDS011;4779;48.062;11.672;2023-03-31T13:32:06;3.77;;;1.73;;
9481;SDS011;4779;48.062;11.672;2023-03-31T13:34:45;1.63;;;1.00;;
9481;SDS011;4779;48.062;11.672;2023-03-31T13:37:24;1.33;;;1.13;;
9481;SDS011;4779;48.062;11.672;2023-03-31T13:40:32;1.97;;;1.03;;
9481;SDS011;4779;48.062;11.672;2023-03-31T13:43:25;4.00;;;1.30;;
9481;SDS011;4779;48.062;11.672;2023-03-31T13:46:08;1.97;;;1.13;;
9481;SDS011;4779;48.062;11.672;2023-03-31T13:48:54;1.23;;;1.17;;
9481;SDS011;4779;48.062;11.672;2023-03-31T13:51:31;2.80;;;1.37;;
9481;SDS011;4779;48.062;11.672;2023-03-31T13:54:11;2.70;;;1.43;;
9481;SDS011;4779;48.062;11.672;2023-03-31T13:57:16;3.33;;;1.30;;
9481;SDS011;4779;48.062;11.672;2023-03-31T14:00:15;2.83;;;1.50;;
9481;SDS011;4779;48.062;11.672;2023-03-31T14:05:52;2.57;;;1.50;;
9481;SDS011;4779;48.062;11.672;2023-03-31T14:08:28;2.33;;;1.20;;
9481;SDS011;4779;48.062;11.672;2023-03-31T14:11:15;4.37;;;2.20;;
9481;SDS011;4779;48.062;11.672;2023-03-31T14:13:44;2.93;;;1.80;;
9481;SDS011;4779;48.062;11.672;2023-03-31T14:16:24;3.63;;;1.33;;
9481;SDS011;4779;48.062;11.672;2023-03-31T14:18:54;2.53;;;1.57;;
9481;SDS011;4779;48.062;11.672;2023-03-31T14:21:33;2.83;;;1.70;;
9481;SDS011;4779;48.062;11.672;2023-03-31T14:24:09;2.13;;;1.30;;
9481;SDS011;4779;48.062;11.672;2023-03-31T14:26:48;1.50;;;1.40;;
9481;SDS011;4779;48.062;11.672;2023-03-31T14:29:26;5.67;;;1.60;;
9481;SDS011;4779;48.062;11.672;2023-03-31T14:32:02;4.63;;;1.90;;
9481;SDS011;4779;48.062;11.672;2023-03-31T14:34:43;2.80;;;1.80;;
9481;SDS011;4779;48.062;11.672;2023-03-31T14:37:25;2.87;;;1.80;;
9481;SDS011;4779;48.062;11.672;2023-03-31T14:39:53;3.20;;;1.83;;
9481;SDS011;4779;48.062;11.672;2023-03-31T14:42:22;1.93;;;1.63;;
9481;SDS011;4779;48.062;11.672;2023-03-31T14:44:54;3.27;;;1.73;;
9481;SDS011;4779;48.062;11.672;2023-03-31T14:47:22;3.57;;;2.07;;
9481;SDS011;4779;48.062;11.672;2023-03-31T14:50:01;5.00;;;1.20;;
9481;SDS011;4779;48.062;11.672;2023-03-31T14:52:31;2.53;;;1.03;;
9481;SDS011;4779;48.062;11.672;2023-03-31T14:55:00;2.40;;;0.80;;
9481;SDS011;4779;48.062;11.672;2023-03-31T14:57:28;1.33;;;0.80;;
9481;SDS011;4779;48.062;11.672;2023-03-31T14:59:58;1.20;;;0.80;;
9481;SDS011;4779;48.062;11.672;2023-03-31T15:02:30;1.23;;;0.73;;
9481;SDS011;4779;48.062;11.672;2023-03-31T15:05:01;1.20;;;0.70;;
9481;SDS011;4779;48.062;11.672;2023-03-31T15:07:31;2.00;;;0.80;;
9481;SDS011;4779;48.062;11.672;2023-03-31T15:09:58;0.83;;;0.70;;
9481;SDS011;4779;48.062;11.672;2023-03-31T15:12:26;4.27;;;0.80;;
9481;SDS011;4779;48.062;11.672;2023-03-31T15:14:55;2.50;;;1.00;;
9481;SDS011;4779;48.062;11.672;2023-03-31T15:17:26;1.13;;;0.77;;
9481;SDS011;4779;48.062;11.672;2023-03-31T15:19:57;1.67;;;0.80;;
9481;SDS011;4779;48.062;11.672;2023-03-31T15:22:27;2.73;;;1.00;;
9481;SDS011;4779;48.062;11.672;2023-03-31T15:24:55;1.73;;;0.63;;
9481;SDS011;4779;48.062;11.672;2023-03-31T15:27:29;1.47;;;1.13;;
9481;SDS011;4779;48.062;11.672;2023-03-31T15:29:59;2.37;;;1.20;;
9481;SDS011;4779;48.062;11.672;2023-03-31T15:32:29;1.70;;;1.00;;
9481;SDS011;4779;48.062;11.672;2023-03-31T15:35:00;1.93;;;1.10;;
9481;SDS011;4779;48.062;11.672;2023-03-31T15:37:31;2.73;;;1.20;;
9481;SDS011;4779;48.062;11.672;2023-03-31T15:40:08;3.07;;;1.40;;
9481;SDS011;4779;48.062;11.672;2023-03-31T15:42:42;2.07;;;1.17;;
9481;SDS011;4779;48.062;11.672;2023-03-31T15:48:13;1.90;;;1.33;;
9481;SDS011;4779;48.062;11.672;2023-03-31T15:50:44;2.83;;;1.53;;
9481;SDS011;4779;48.062;11.672;2023-03-31T15:53:22;10.87;;;1.97;;
9481;SDS011;4779;48.062;11.672;2023-03-31T15:55:57;2.47;;;1.67;;
9481;SDS011;4779;48.062;11.672;2023-03-31T16:01:11;1.97;;;1.20;;
9481;SDS011;4779;48.062;11.672;2023-03-31T16:03:41;2.10;;;1.37;;
9481;SDS011;4779;48.062;11.672;2023-03-31T16:06:14;2.90;;;1.50;;
9481;SDS011;4779;48.062;11.672;2023-03-31T16:08:50;1.63;;;1.00;;
9481;SDS011;4779;48.062;11.672;2023-03-31T16:11:22;1.50;;;1.20;;
9481;SDS011;4779;48.062;11.672;2023-03-31T16:13:53;2.17;;;1.33;;
9481;SDS011;4779;48.062;11.672;2023-03-31T16:16:24;6.87;;;1.90;;
9481;SDS011;4779;48.062;11.672;2023-03-31T16:18:53;2.63;;;1.23;;
9481;SDS011;4779;48.062;11.672;2023-03-31T16:21:32;2.63;;;1.43;;
9481;SDS011;4779;48.062;11.672;2023-03-31T16:24:02;1.87;;;1.17;;
9481;SDS011;4779;48.062;11.672;2023-03-31T16:26:31;2.57;;;1.40;;